York, Western Australia

12:04 PM WST on August 28, 2014 (GMT +0800)
Koojedda | Change Station
CLOSE
Current Station
Personal Weather Station
Location: Bakers Hill, WESTERN AUSTRALIA
Elevation: 1047 ft
Nearby Weather Stations

Elev 1047 ft 31.74 °S, 116.44 °E | Updated 4 minutes ago

Clear
Clear
69.4 °F
Feels Like 69.4 °F
N
4.0
Wind Variable Wind from NNW
Gusts 11.0 mph

Today
High -- | Low -- °F
--% Chance of Precip.
Yesterday
High -- | Low -- °F
Precip. -- in
6:35 AM 5:53 PM
Waxing Crescent, 6% visible
Pressure 30.01 in
Visibility -9999.0 miles
Clouds
Dew Point 54 °F
Humidity 58%
Rainfall 0.00 in
Snow Depth Not available.
UV 4.7 out of 12
Pollen Not available.
Air Quality Not available.
Flu Activity Not available.
METAR YPPH 280330Z 01007KT CAVOK 21/09 Q1016

More Conditions Fewer Conditions

Pressure 30.01 in
Visibility -9999.0 miles
Clouds
Dew Point 54 °F
Humidity 58%
Rainfall 0.00 in
Snow Depth Not available.
UV 4.7 out of 12
Pollen Not available.
Air Quality Not available.
Flu Activity Not available.
METAR YPPH 280330Z 01007KT CAVOK 21/09 Q1016

More Conditions Fewer Conditions

10-Day Weather Forecast

Almanac

Astronomy

Aug. 28, 2014 Rise Set
Actual Time 6:35 AM WST 5:53 PM WST
Civil Twilight 6:10 AM WST 6:18 PM WST
Nautical Twilight 5:42 AM WST 6:46 PM WST
Astronomical Twilight 5:13 AM WST 7:15 PM WST
Moon 7:44 AM WST 8:20 PM WST
Length of Visible Light 12h 08m
Length of Day
11h 18m
Tomorrow will be 1m 49s longer.
Waxing Crescent, 6% of the Moon is Illuminated
Today
Waxing Crescent
Sep 2
First Quarter
Sep 8
Full
Sep 15
Last Quarter
Sep 24
New

Yesterday's Extremes

Country Highs Country Lows

Community

WunderPhotos

Upload Photos

1,747,900 photos uploaded!

Nearby

Snow Depth

Not available.

Earthquake Activity

City Distance Mag. Time & Date
No recent earthquake activity has been reported nearby.
Minimum magnitude displayed is 2.5.

Coastal Water Temperatures

Place Temperature
No Stations Reporting

Nearby Weather Stations